Time;durP1;ratioP1;P1;durP2;ratioP2;P2;SDS_P1;SDS_P2;PMS_P1;PMS_P2;Temp;Humidity;BMP_temperature;BMP_pressure;BME280_temperature;BME280_humidity;BME280_pressure;Samples;Min_cycle;Max_cycle;Signal;HPM_P1;HPM_P2
2024/01/09 00:00:23;;;;;;;22.25;13.57;;;;;;;8.25;71.67;101976.44;5087757;28;20024;-89
2024/01/09 00:02:50;;;;;;;20.65;12.68;;;;;;;7.91;72.19;101920.72;5070620;28;20674;-91
2024/01/09 00:05:18;;;;;;;22.50;12.75;;;;;;;8.07;71.64;101951.53;5061232;28;20111;-91
2024/01/09 00:07:43;;;;;;;22.85;13.05;;;;;;;8.25;72.40;101992.06;5062650;28;20039;-91
2024/01/09 00:10:11;;;;;;;21.10;12.30;;;;;;;7.87;71.35;101931.66;5066405;28;20016;-92
2024/01/09 00:12:38;;;;;;;23.15;12.52;;;;;;;8.03;71.10;101960.75;5065093;28;20036;-91
2024/01/09 00:15:06;;;;;;;20.38;12.15;;;;;;;8.36;71.79;102016.41;5065513;28;20417;-92
2024/01/09 00:17:32;;;;;;;20.60;12.40;;;;;;;8.03;72.03;101970.25;5069312;28;20035;-92
2024/01/09 00:20:20;;;;;;;22.10;13.18;;;;;;;7.89;71.69;101953.50;5072975;28;20028;-93
2024/01/09 00:23:16;;;;;;;21.02;12.52;;;;;;;8.32;71.25;102029.94;5056918;28;20028;-94
2024/01/09 00:25:58;;;;;;;22.85;12.25;;;;;;;7.74;71.97;101946.22;5069823;28;20036;-94
2024/01/09 00:28:24;;;;;;;22.33;12.77;;;;;;;8.12;71.25;102010.03;5064511;28;20036;-93
2024/01/09 00:34:21;;;;;;;21.30;12.32;;;;;;;8.13;71.93;102022.28;5079455;28;20089;-93
2024/01/09 00:36:49;;;;;;;21.20;12.60;;;;;;;8.13;71.48;102024.91;5071234;28;20029;-92
2024/01/09 00:39:27;;;;;;;21.45;12.30;;;;;;;8.11;71.43;102029.06;5074054;28;20806;-93
2024/01/09 00:42:00;;;;;;;19.75;11.57;;;;;;;7.92;71.45;102000.59;5071698;28;20513;-95
2024/01/09 00:44:44;;;;;;;22.70;13.18;;;;;;;7.99;71.19;102009.81;5072601;28;20390;-94
2024/01/09 00:47:15;;;;;;;21.30;12.50;;;;;;;8.20;71.53;102062.75;5083543;28;20040;-94
2024/01/09 00:49:45;;;;;;;24.20;13.10;;;;;;;8.20;71.38;102047.13;5047263;28;20110;-88
2024/01/09 00:52:14;;;;;;;23.30;13.32;;;;;;;7.85;71.36;101985.22;5069133;28;20041;-89
2024/01/09 00:54:42;;;;;;;21.23;12.10;;;;;;;7.71;71.37;101965.88;5075102;28;20417;-89
2024/01/09 00:57:08;;;;;;;20.95;12.23;;;;;;;7.86;71.37;101990.56;5066382;28;20033;-89
2024/01/09 00:59:35;;;;;;;22.67;12.70;;;;;;;8.13;71.49;102046.59;5084243;28;20035;-89
2024/01/09 01:02:01;;;;;;;21.27;12.35;;;;;;;7.49;71.18;101934.53;5065366;28;20036;-88
2024/01/09 01:04:28;;;;;;;23.60;12.38;;;;;;;7.32;71.64;101915.84;5056760;28;20113;-91
2024/01/09 01:06:55;;;;;;;19.27;11.85;;;;;;;8.03;71.34;102046.59;5067713;28;20032;-88
2024/01/09 01:09:21;;;;;;;23.35;12.32;;;;;;;7.62;70.96;101958.22;5092820;28;20035;-88
2024/01/09 01:11:46;;;;;;;20.05;12.07;;;;;;;7.63;70.87;101956.50;5087810;28;20041;-90
2024/01/09 01:14:12;;;;;;;22.10;12.05;;;;;;;8.05;71.79;102036.34;5085708;28;20032;-87
2024/01/09 01:16:54;;;;;;;19.70;12.15;;;;;;;7.61;71.19;101948.56;5090730;28;20032;-92
2024/01/09 01:19:20;;;;;;;21.38;11.80;;;;;;;7.67;71.47;101964.69;5072405;28;20039;-91
2024/01/09 01:21:46;;;;;;;22.27;11.88;;;;;;;7.53;71.12;101950.53;5077111;28;20028;-90
2024/01/09 01:24:12;;;;;;;19.60;11.45;;;;;;;7.98;71.09;102026.19;5066712;28;20493;-91
2024/01/09 01:26:55;;;;;;;20.02;11.85;;;;;;;7.97;71.35;102019.16;5071236;28;20114;-91
2024/01/09 01:29:23;;;;;;;20.67;11.35;;;;;;;8.00;71.33;102037.63;5077531;28;20113;-90
2024/01/09 01:31:51;;;;;;;21.63;12.20;;;;;;;7.70;71.58;101998.78;5077112;28;20424;-89
2024/01/09 01:34:24;;;;;;;21.52;11.90;;;;;;;7.57;71.03;101981.97;5075910;28;20475;-90
2024/01/09 01:36:50;;;;;;;19.90;11.55;;;;;;;7.63;71.10;101986.00;5081511;28;20048;-89
2024/01/09 01:39:25;;;;;;;19.27;11.55;;;;;;;7.17;71.48;101926.59;5075976;28;20066;-90
2024/01/09 01:41:56;;;;;;;20.85;11.68;;;;;;;7.03;71.00;101910.72;5070373;28;20147;-89
2024/01/09 01:44:32;;;;;;;19.80;11.30;;;;;;;7.61;71.43;102026.56;5071513;28;20374;-90
2024/01/09 01:46:59;;;;;;;17.67;10.30;;;;;;;7.65;71.85;102041.66;5074609;28;20024;-90
2024/01/09 01:49:26;;;;;;;20.00;11.65;;;;;;;7.13;70.93;101961.75;5075449;28;20044;-89
2024/01/09 01:51:52;;;;;;;17.42;11.02;;;;;;;7.74;71.70;102071.03;5086670;28;20032;-89
2024/01/09 01:54:21;;;;;;;20.73;11.40;;;;;;;7.63;71.50;102058.81;5091219;28;20024;-89
2024/01/09 01:56:48;;;;;;;19.65;11.20;;;;;;;7.44;71.51;102035.50;5075366;28;20036;-90
2024/01/09 01:59:17;;;;;;;20.95;11.30;;;;;;;7.45;71.21;102021.75;5087538;28;20028;-90
2024/01/09 02:01:44;;;;;;;18.08;10.85;;;;;;;7.63;71.12;102043.19;5080172;28;20033;-90
2024/01/09 02:04:11;;;;;;;19.98;11.38;;;;;;;7.52;72.14;102011.09;5072462;28;20036;-90
2024/01/09 02:06:43;;;;;;;18.23;10.75;;;;;;;7.59;71.99;102022.00;5069545;28;20027;-90
2024/01/09 02:09:09;;;;;;;20.13;11.52;;;;;;;7.33;71.50;101985.19;5072030;28;20043;-90
2024/01/09 02:11:37;;;;;;;19.83;11.27;;;;;;;7.27;70.70;101987.25;5073546;28;20032;-91
2024/01/09 02:14:04;;;;;;;18.58;10.95;;;;;;;7.23;71.82;101979.97;5074783;28;20486;-91
2024/01/09 02:16:30;;;;;;;20.00;11.48;;;;;;;7.40;71.74;102010.03;5070619;28;20032;-91
2024/01/09 02:19:05;;;;;;;20.33;11.23;;;;;;;7.63;71.49;102024.09;5073596;28;20519;-90
2024/01/09 02:21:33;;;;;;;19.30;11.30;;;;;;;7.45;70.95;101998.34;5058856;28;20499;-91
2024/01/09 02:24:00;;;;;;;21.05;11.73;;;;;;;7.45;70.86;101989.63;5073995;28;20020;-92
2024/01/09 02:26:35;;;;;;;19.42;11.25;;;;;;;7.43;71.38;101988.56;5089359;28;20032;-91
2024/01/09 02:29:09;;;;;;;20.60;11.00;;;;;;;7.67;71.01;102029.69;5074126;28;20409;-90
2024/01/09 02:31:48;;;;;;;19.15;10.60;;;;;;;7.47;71.09;102002.00;5089649;28;20107;-91
2024/01/09 02:34:24;;;;;;;18.02;10.63;;;;;;;7.42;71.41;101999.78;5068709;28;20043;-90
2024/01/09 02:36:53;;;;;;;19.05;10.93;;;;;;;7.62;71.53;102045.66;5074052;28;20028;-91
2024/01/09 02:39:39;;;;;;;18.45;10.90;;;;;;;7.59;71.67;102041.13;5080322;28;20154;-91
2024/01/09 02:42:09;;;;;;;18.05;10.27;;;;;;;7.60;71.32;102053.34;5072495;28;20028;-90
2024/01/09 02:44:40;;;;;;;20.25;11.25;;;;;;;7.34;70.77;102014.69;5067783;28;20485;-91
2024/01/09 02:47:06;;;;;;;20.33;10.73;;;;;;;7.37;71.06;102038.34;5072746;28;20089;-91
2024/01/09 02:49:33;;;;;;;19.90;10.38;;;;;;;7.29;72.03;102044.56;5069276;28;20044;-91
2024/01/09 02:52:02;;;;;;;19.80;11.38;;;;;;;7.16;71.77;102036.47;5089662;28;20023;-90
2024/01/09 02:54:27;;;;;;;18.95;10.68;;;;;;;7.44;71.08;102084.88;5073611;28;20028;-92
2024/01/09 02:56:53;;;;;;;16.98;10.18;;;;;;;7.28;71.46;102055.72;5065056;28;20035;-92
2024/01/09 02:59:36;;;;;;;19.33;10.65;;;;;;;7.36;71.59;102067.69;5073718;28;20048;-93
2024/01/09 03:02:25;;;;;;;17.02;10.38;;;;;;;7.48;71.80;102107.75;5066285;28;20036;-93
2024/01/09 03:04:52;;;;;;;17.90;10.05;;;;;;;7.14;71.65;102062.31;5065226;28;20507;-92
2024/01/09 03:07:23;;;;;;;15.77;9.90;;;;;;;7.32;70.99;102114.97;5075277;28;20085;-91
2024/01/09 03:10:05;;;;;;;19.02;9.90;;;;;;;7.29;71.34;102105.22;5063683;28;20025;-91
2024/01/09 03:12:49;;;;;;;18.48;10.32;;;;;;;7.35;71.17;102117.88;5055294;28;20493;-93
2024/01/09 03:15:30;;;;;;;17.60;9.93;;;;;;;7.21;71.54;102097.53;5073700;28;20762;-92
2024/01/09 03:18:04;;;;;;;17.48;9.80;;;;;;;7.18;71.30;102095.59;5066615;28;20024;-92
2024/01/09 03:20:35;;;;;;;18.58;10.02;;;;;;;7.16;71.28;102078.94;5069827;28;20089;-92
2024/01/09 03:23:15;;;;;;;17.25;10.25;;;;;;;7.21;71.11;102092.34;5074556;28;20032;-91
2024/01/09 03:25:56;;;;;;;16.00;9.73;;;;;;;7.10;70.82;102071.50;5070960;28;20033;-91
2024/01/09 03:28:29;;;;;;;18.75;9.75;;;;;;;7.27;71.03;102092.88;5072352;28;20031;-90
2024/01/09 03:31:04;;;;;;;17.40;10.27;;;;;;;7.14;71.19;102088.28;5062299;28;20020;-90
2024/01/09 03:33:46;;;;;;;16.70;10.48;;;;;;;7.24;71.22;102103.94;5057083;28;20111;-92
2024/01/09 03:36:14;;;;;;;17.15;9.73;;;;;;;7.11;70.81;102099.31;5069495;28;20115;-92
2024/01/09 03:38:53;;;;;;;17.27;10.40;;;;;;;7.15;71.92;102110.88;5069466;28;20509;-90
2024/01/09 03:41:34;;;;;;;15.93;9.60;;;;;;;7.12;71.62;102127.13;5071882;28;20514;-91
2024/01/09 03:44:06;;;;;;;18.48;10.00;;;;;;;7.11;71.00;102148.69;5073766;28;20074;-92
2024/01/09 03:46:53;;;;;;;15.88;9.50;;;;;;;7.28;71.81;102186.56;5073677;28;20036;-92
2024/01/09 03:49:24;;;;;;;16.45;9.63;;;;;;;7.05;71.35;102131.66;5066975;28;20052;-93
2024/01/09 03:52:10;;;;;;;17.02;10.35;;;;;;;7.27;70.80;102178.63;5029653;28;20028;-93
2024/01/09 03:55:04;;;;;;;17.48;10.25;;;;;;;7.22;71.28;102195.50;5027365;28;20107;-91
2024/01/09 03:57:30;;;;;;;16.73;9.77;;;;;;;6.85;71.00;102117.75;5047877;28;20178;-91
2024/01/09 04:00:00;;;;;;;15.02;8.82;;;;;;;7.06;71.69;102139.53;5038609;28;20112;-91
2024/01/09 04:02:27;;;;;;;16.80;9.45;;;;;;;7.06;71.87;102144.75;5020936;28;20393;-89
2024/01/09 04:04:53;;;;;;;16.27;9.50;;;;;;;6.95;71.85;102142.88;5044237;28;20024;-93
2024/01/09 04:07:19;;;;;;;16.95;9.63;;;;;;;6.97;70.84;102158.59;5035710;28;20078;-91
2024/01/09 04:09:53;;;;;;;16.30;9.95;;;;;;;6.93;71.18;102173.88;5044197;28;20104;-93
2024/01/09 04:12:19;;;;;;;16.10;9.38;;;;;;;7.05;70.45;102194.88;5031112;28;20028;-92
2024/01/09 04:14:45;;;;;;;16.55;9.48;;;;;;;7.12;70.58;102217.13;5052445;28;20025;-94
2024/01/09 04:17:17;;;;;;;16.77;9.93;;;;;;;6.96;71.40;102194.03;5046358;28;20044;-94
2024/01/09 04:19:49;;;;;;;15.02;9.40;;;;;;;6.98;70.83;102194.19;5031648;28;20029;-94
2024/01/09 04:25:37;;;;;;;16.20;9.68;;;;;;;6.85;71.39;102167.06;5065593;28;20102;-92
2024/01/09 04:28:11;;;;;;;15.88;9.55;;;;;;;7.01;71.61;102212.66;5036140;28;20024;-94
2024/01/09 04:30:59;;;;;;;15.85;9.45;;;;;;;7.11;70.85;102241.25;5034229;28;20068;-93
2024/01/09 04:33:41;;;;;;;15.57;8.95;;;;;;;7.02;71.00;102232.63;5040789;28;20508;-93
2024/01/09 04:36:15;;;;;;;16.77;9.73;;;;;;;6.97;71.07;102224.44;5035466;28;20047;-94
2024/01/09 04:39:03;;;;;;;17.33;9.90;;;;;;;6.78;71.12;102201.06;5030341;28;20082;-94
2024/01/09 04:41:36;;;;;;;16.17;9.77;;;;;;;6.84;71.25;102229.28;5042292;28;20023;-94
2024/01/09 04:44:26;;;;;;;14.68;9.60;;;;;;;7.02;71.16;102272.50;5038302;28;20025;-93
2024/01/09 04:47:02;;;;;;;16.75;9.07;;;;;;;7.05;71.16;102288.41;5028308;28;20032;-92
2024/01/09 04:49:29;;;;;;;14.77;8.93;;;;;;;6.84;70.95;102243.16;5085458;28;20044;-92
2024/01/09 04:52:09;;;;;;;14.95;8.77;;;;;;;6.89;71.36;102266.97;5076777;28;20036;-92
2024/01/09 04:54:44;;;;;;;15.35;9.35;;;;;;;6.93;71.31;102269.06;5068518;28;20040;-92
2024/01/09 04:57:10;;;;;;;14.70;9.25;;;;;;;6.76;71.52;102241.53;5077315;28;20070;-92
2024/01/09 04:59:45;;;;;;;18.00;9.90;;;;;;;6.59;71.29;102218.31;5077896;28;20463;-92
2024/01/09 05:02:29;;;;;;;20.05;10.27;;;;;;;6.67;70.94;102241.59;5061304;28;20064;-93
2024/01/09 05:05:14;;;;;;;20.63;10.23;;;;;;;6.93;71.31;102282.06;5074486;28;20033;-93
2024/01/09 05:07:42;;;;;;;18.73;9.80;;;;;;;6.82;71.28;102242.13;5042791;28;20128;-91
2024/01/09 05:10:41;;;;;;;20.27;10.93;;;;;;;6.95;71.27;102270.13;5075807;28;20028;-92
2024/01/09 05:13:07;;;;;;;17.70;9.80;;;;;;;6.70;71.04;102228.00;5106033;28;20489;-91
2024/01/09 05:15:43;;;;;;;17.30;9.93;;;;;;;6.59;71.46;102218.31;5071622;28;20028;-93
2024/01/09 05:18:25;;;;;;;17.25;9.88;;;;;;;6.41;71.08;102175.97;5073466;28;20139;-92
2024/01/09 05:20:58;;;;;;;20.73;10.57;;;;;;;6.51;71.56;102212.38;5075746;28;20035;-92
2024/01/09 05:23:25;;;;;;;16.85;9.95;;;;;;;6.60;71.42;102241.78;5092929;28;20028;-91
2024/01/09 05:25:52;;;;;;;19.25;10.50;;;;;;;6.16;71.33;102178.88;5073847;28;20036;-92
2024/01/09 05:28:23;;;;;;;18.77;10.02;;;;;;;6.61;71.59;102260.88;5071532;28;20477;-91
2024/01/09 05:31:35;;;;;;;19.38;10.68;;;;;;;6.78;71.46;102284.13;5086631;28;20463;-94
2024/01/09 05:34:09;;;;;;;19.25;10.57;;;;;;;6.55;70.98;102268.09;5086218;28;20485;-93
2024/01/09 05:36:41;;;;;;;19.08;10.98;;;;;;;6.66;70.51;102270.00;5074026;28;20024;-94
2024/01/09 05:39:11;;;;;;;18.35;10.73;;;;;;;6.69;71.37;102272.91;5071947;28;20031;-93
2024/01/09 05:41:39;;;;;;;17.48;10.05;;;;;;;5.95;70.94;102151.81;5085625;28;20130;-94
2024/01/09 05:44:21;;;;;;;17.13;9.90;;;;;;;6.44;70.86;102255.00;5062994;28;20122;-95
2024/01/09 05:46:53;;;;;;;17.13;10.05;;;;;;;6.49;71.22;102276.19;5081316;28;20027;-93
2024/01/09 05:49:33;;;;;;;18.08;10.05;;;;;;;6.41;71.33;102262.50;5081410;28;20102;-94
2024/01/09 05:52:02;;;;;;;17.25;9.93;;;;;;;6.37;71.08;102257.81;5033538;28;20090;-95
2024/01/09 05:54:44;;;;;;;17.55;10.05;;;;;;;5.86;71.21;102189.78;5042564;28;20033;-95
2024/01/09 05:57:10;;;;;;;17.45;9.23;;;;;;;6.26;71.65;102253.25;5038477;28;20037;-96
2024/01/09 05:59:46;;;;;;;18.17;9.80;;;;;;;6.12;70.97;102233.81;5035283;28;20041;-95
2024/01/09 06:02:12;;;;;;;17.20;10.10;;;;;;;6.19;70.65;102236.22;5035944;28;20095;-95
2024/01/09 06:04:45;;;;;;;17.67;9.68;;;;;;;6.36;71.42;102284.50;5040327;28;20036;-92
2024/01/09 06:07:22;;;;;;;17.42;9.77;;;;;;;6.24;71.14;102262.56;5034107;28;20105;-94
2024/01/09 06:09:49;;;;;;;;;;;;;;;6.56;70.83;102309.78;5027269;28;20040;-93
2024/01/09 06:12:27;;;;;;;17.43;9.57;;;;;;;6.44;70.99;102293.03;5054196;28;19923;-93
2024/01/09 06:14:59;;;;;;;19.55;9.63;;;;;;;6.46;71.23;102310.56;5037423;28;20095;-92
2024/01/09 06:17:44;;;;;;;16.83;10.25;;;;;;;6.53;71.37;102307.78;5032532;28;20067;-92
2024/01/09 06:20:22;;;;;;;18.52;10.60;;;;;;;6.58;71.02;102320.28;5036383;28;20052;-93
2024/01/09 06:22:48;;;;;;;16.17;10.00;;;;;;;6.58;71.00;102328.06;5038359;28;20111;-93
2024/01/09 06:25:24;;;;;;;17.27;9.73;;;;;;;6.44;70.90;102322.47;5037625;28;20120;-92
2024/01/09 06:28:14;;;;;;;17.63;10.20;;;;;;;6.57;71.27;102349.63;5038150;28;20090;-94
2024/01/09 06:30:41;;;;;;;16.23;9.38;;;;;;;6.56;70.93;102352.97;5030966;28;20033;-95
2024/01/09 06:33:21;;;;;;;15.10;8.93;;;;;;;6.34;70.99;102317.19;5051005;28;20037;-93
2024/01/09 06:36:28;;;;;;;16.73;10.07;;;;;;;6.57;70.65;102360.91;5039493;28;20478;-95
2024/01/09 06:38:54;;;;;;;17.23;9.13;;;;;;;6.53;71.16;102363.97;5045732;28;20123;-92
2024/01/09 06:41:21;;;;;;;18.73;10.38;;;;;;;6.34;70.66;102332.75;5051382;28;20557;-90
2024/01/09 06:43:48;;;;;;;16.45;9.48;;;;;;;6.14;70.61;102301.38;5038397;28;20243;-92
2024/01/09 06:46:16;;;;;;;15.68;9.68;;;;;;;6.30;70.71;102339.31;5038266;28;20027;-91
2024/01/09 06:48:41;;;;;;;15.07;9.25;;;;;;;6.44;70.72;102352.72;5072268;28;20130;-92
2024/01/09 06:51:13;;;;;;;17.42;9.50;;;;;;;6.47;70.80;102377.25;5033961;28;20029;-93
2024/01/09 06:53:47;;;;;;;16.25;9.77;;;;;;;6.41;71.05;102367.97;5031146;28;20078;-91
2024/01/09 06:56:14;;;;;;;16.77;9.88;;;;;;;6.46;71.22;102378.03;5034731;28;20071;-93
2024/01/09 06:58:55;;;;;;;16.30;9.57;;;;;;;6.19;70.49;102347.75;5039131;28;20421;-92
2024/01/09 07:01:28;;;;;;;17.30;9.45;;;;;;;6.06;70.83;102324.00;5033516;28;20037;-91
2024/01/09 07:04:03;;;;;;;15.93;9.25;;;;;;;6.32;70.55;102386.16;5032089;28;20046;-93
2024/01/09 07:06:39;;;;;;;14.98;8.77;;;;;;;6.32;70.72;102370.59;5046987;28;20032;-94
2024/01/09 07:09:08;;;;;;;16.05;9.40;;;;;;;6.44;70.60;102418.50;5052545;28;20504;-91
2024/01/09 07:11:36;;;;;;;16.77;9.95;;;;;;;6.29;71.23;102397.16;5038569;28;20033;-91
2024/01/09 07:14:15;;;;;;;16.85;10.15;;;;;;;6.39;71.15;102429.19;5037513;28;20024;-91
2024/01/09 07:16:49;;;;;;;16.60;9.55;;;;;;;6.46;70.82;102445.53;5033946;28;20108;-91
2024/01/09 07:19:18;;;;;;;14.77;9.18;;;;;;;6.20;70.36;102408.31;5043964;28;20094;-91
2024/01/09 07:21:49;;;;;;;17.88;9.77;;;;;;;6.29;70.44;102433.50;5037312;28;20032;-91
2024/01/09 07:24:15;;;;;;;17.52;10.18;;;;;;;6.13;70.59;102393.84;5035904;28;20414;-92
2024/01/09 07:26:47;;;;;;;16.27;10.15;;;;;;;6.31;70.75;102428.47;5032423;28;20021;-93
2024/01/09 07:29:19;;;;;;;17.73;10.10;;;;;;;6.23;70.60;102422.50;5034432;28;20029;-92
2024/01/09 07:31:49;;;;;;;18.63;10.43;;;;;;;6.41;70.71;102448.41;5037198;28;20028;-91
2024/01/09 07:34:18;;;;;;;19.52;10.45;;;;;;;6.14;71.15;102411.25;5036551;28;20505;-91
2024/01/09 07:36:56;;;;;;;18.17;9.65;;;;;;;6.29;71.04;102450.75;5041395;28;20035;-91
2024/01/09 07:39:22;;;;;;;17.92;10.95;;;;;;;6.29;70.65;102462.03;5037161;28;20059;-90
2024/01/09 07:41:55;;;;;;;18.92;10.38;;;;;;;6.01;70.78;102403.94;5054623;28;20103;-90
2024/01/09 07:44:28;;;;;;;16.98;9.75;;;;;;;6.34;70.31;102454.69;5024377;28;20021;-90
2024/01/09 07:46:54;;;;;;;18.55;10.02;;;;;;;5.91;70.74;102380.41;5053829;28;20020;-90
2024/01/09 07:49:22;;;;;;;18.25;9.75;;;;;;;6.15;70.90;102432.91;5057071;28;20051;-90
2024/01/09 07:51:51;;;;;;;16.80;9.77;;;;;;;6.26;70.82;102455.63;5074491;28;20067;-91
2024/01/09 07:54:24;;;;;;;16.73;9.88;;;;;;;6.29;70.41;102448.16;5074358;28;20031;-90
2024/01/09 07:56:49;;;;;;;18.83;10.40;;;;;;;5.96;70.39;102384.41;5074151;28;20032;-92
2024/01/09 07:59:21;;;;;;;20.80;11.20;;;;;;;6.22;70.66;102438.84;5074664;28;20038;-91
2024/01/09 08:02:06;;;;;;;19.88;10.80;;;;;;;6.19;70.94;102441.13;5090596;28;20024;-90
2024/01/09 08:04:33;;;;;;;17.95;10.43;;;;;;;6.07;71.13;102425.25;5081684;28;20039;-92
2024/01/09 08:07:17;;;;;;;21.73;11.20;;;;;;;6.23;70.71;102431.97;5069962;28;20033;-92
2024/01/09 08:09:43;;;;;;;20.70;11.13;;;;;;;5.89;70.60;102379.34;5070769;28;20425;-93
2024/01/09 08:12:12;;;;;;;20.63;10.88;;;;;;;6.07;70.62;102411.38;5074945;28;20118;-91
2024/01/09 08:14:39;;;;;;;22.10;11.85;;;;;;;5.89;70.64;102364.69;5072001;28;20036;-91
2024/01/09 08:17:06;;;;;;;19.48;11.00;;;;;;;6.19;70.67;102422.06;5065004;28;20178;-88
2024/01/09 08:19:32;;;;;;;20.73;11.73;;;;;;;5.80;70.40;102365.47;5097967;28;20025;-88
2024/01/09 08:21:58;;;;;;;20.13;11.15;;;;;;;5.99;70.08;102378.59;5069376;28;20093;-87
2024/01/09 08:24:23;;;;;;;20.63;11.45;;;;;;;5.76;70.44;102347.78;5085640;28;20029;-87
2024/01/09 08:26:52;;;;;;;19.73;10.60;;;;;;;5.99;70.55;102382.13;5081851;28;20028;-90
2024/01/09 08:29:27;;;;;;;19.98;10.80;;;;;;;5.72;71.17;102357.84;5073638;28;20086;-90
2024/01/09 08:32:06;;;;;;;18.85;10.52;;;;;;;5.80;71.33;102379.38;5074963;28;20025;-91
2024/01/09 08:34:37;;;;;;;20.42;10.57;;;;;;;5.80;71.09;102375.84;5082574;28;20476;-91
2024/01/09 08:37:06;;;;;;;18.63;10.13;;;;;;;5.86;70.52;102374.78;5073735;28;20043;-90
2024/01/09 08:39:33;;;;;;;16.35;9.90;;;;;;;5.94;70.45;102382.41;5077307;28;20119;-91
2024/01/09 08:42:02;;;;;;;18.15;9.80;;;;;;;6.11;70.21;102418.72;5072672;28;20512;-91
2024/01/09 08:44:27;;;;;;;17.35;10.05;;;;;;;6.02;70.57;102418.72;5074047;28;20059;-92
2024/01/09 08:46:53;;;;;;;17.52;10.15;;;;;;;5.95;70.87;102411.13;5091104;28;20130;-91
2024/01/09 08:49:36;;;;;;;19.35;10.45;;;;;;;5.69;70.90;102387.72;5072150;28;20055;-91
2024/01/09 08:52:04;;;;;;;16.50;9.95;;;;;;;5.40;70.72;102344.31;5070670;28;20405;-91
2024/01/09 08:54:56;;;;;;;18.67;10.70;;;;;;;6.07;70.11;102421.75;5063807;28;20032;-93
2024/01/09 08:57:25;;;;;;;18.98;10.63;;;;;;;5.87;70.57;102389.56;5087368;28;20033;-92
2024/01/09 09:00:06;;;;;;;18.42;10.95;;;;;;;5.69;70.23;102351.44;5089330;28;20089;-91
2024/01/09 09:02:38;;;;;;;20.17;10.20;;;;;;;5.75;70.81;102361.50;5062077;28;20028;-91
2024/01/09 09:05:07;;;;;;;16.90;10.27;;;;;;;5.71;70.78;102368.06;5072549;28;20497;-91
2024/01/09 09:07:35;;;;;;;17.23;9.82;;;;;;;5.82;70.86;102383.03;5080434;28;20085;-91
2024/01/09 09:10:03;;;;;;;17.05;10.32;;;;;;;5.75;70.32;102364.09;5072036;28;20024;-90
2024/01/09 09:12:28;;;;;;;18.05;10.18;;;;;;;5.71;70.83;102355.09;5072842;28;20540;-91
2024/01/09 09:14:56;;;;;;;18.00;9.98;;;;;;;5.84;70.66;102388.34;5066851;28;20128;-91
2024/01/09 09:17:25;;;;;;;17.77;10.13;;;;;;;5.63;70.46;102318.09;5067330;28;20420;-91
2024/01/09 09:19:52;;;;;;;18.17;10.32;;;;;;;5.72;71.09;102363.03;5076810;28;20039;-90
2024/01/09 09:22:18;;;;;;;16.27;9.75;;;;;;;5.80;70.68;102371.59;5076843;28;20034;-90
2024/01/09 09:24:44;;;;;;;16.92;10.25;;;;;;;5.82;70.78;102372.66;5094169;28;20444;-91
2024/01/09 09:27:16;;;;;;;16.85;10.00;;;;;;;5.62;70.38;102338.66;5078314;28;20036;-91
2024/01/09 09:29:42;;;;;;;20.48;10.32;;;;;;;5.84;70.64;102375.38;5061837;28;20029;-90
2024/01/09 09:32:14;;;;;;;18.30;10.70;;;;;;;5.77;71.02;102373.84;5069087;28;20112;-90
2024/01/09 09:34:45;;;;;;;16.00;9.57;;;;;;;5.64;70.67;102360.47;5077000;28;20135;-90
2024/01/09 09:37:14;;;;;;;17.65;9.68;;;;;;;5.69;70.86;102356.63;5083845;28;20108;-90
2024/01/09 09:39:39;;;;;;;17.08;9.93;;;;;;;5.50;71.07;102334.09;5076208;28;20024;-90
2024/01/09 09:42:08;;;;;;;17.20;10.10;;;;;;;5.95;70.65;102400.75;5074354;28;20034;-90
2024/01/09 09:44:37;;;;;;;18.63;10.50;;;;;;;5.66;70.98;102362.44;5076025;28;20044;-90
2024/01/09 09:47:06;;;;;;;18.38;10.13;;;;;;;5.62;70.82;102361.97;5081501;28;20070;-89
2024/01/09 09:49:37;;;;;;;19.70;9.77;;;;;;;5.63;70.57;102367.31;5080104;28;20068;-91
2024/01/09 09:52:16;;;;;;;19.73;10.05;;;;;;;5.73;70.58;102376.91;5086261;28;20028;-91
2024/01/09 09:54:44;;;;;;;17.38;10.57;;;;;;;5.60;70.27;102341.09;5080651;28;20024;-92
2024/01/09 09:57:28;;;;;;;18.23;10.90;;;;;;;5.78;70.38;102373.13;5076874;28;20525;-91
2024/01/09 09:59:58;;;;;;;16.42;9.70;;;;;;;5.77;70.79;102366.09;5074909;28;20029;-91
2024/01/09 10:02:25;;;;;;;19.23;9.57;;;;;;;5.63;70.91;102374.16;5074814;28;20024;-91
2024/01/09 10:05:02;;;;;;;16.92;9.90;;;;;;;5.79;71.10;102405.13;5061891;28;20556;-91
2024/01/09 10:07:39;;;;;;;17.38;9.95;;;;;;;5.80;69.94;102397.50;5077354;28;20123;-93
2024/01/09 10:10:14;;;;;;;17.80;9.70;;;;;;;5.49;70.03;102346.88;5086363;28;20052;-93
2024/01/09 10:13:11;;;;;;;17.98;10.15;;;;;;;5.83;70.24;102408.16;5070637;28;20539;-92
2024/01/09 10:19:04;;;;;;;17.67;10.15;;;;;;;5.70;70.16;102381.81;5074751;28;20528;-92
2024/01/09 10:21:45;;;;;;;17.33;10.00;;;;;;;5.59;70.24;102378.16;5057124;28;20028;-93
2024/01/09 10:24:14;;;;;;;19.65;10.52;;;;;;;5.61;70.29;102376.63;5076159;28;20044;-91
2024/01/09 10:26:44;;;;;;;17.63;10.07;;;;;;;5.70;69.89;102380.13;5063610;28;20390;-92
2024/01/09 10:29:40;;;;;;;16.38;9.45;;;;;;;5.80;69.98;102397.50;5071789;28;20090;-92
2024/01/09 10:35:32;;;;;;;17.92;10.63;;;;;;;5.55;70.51;102368.25;5083840;28;20453;-92
2024/01/09 10:38:00;;;;;;;15.82;9.73;;;;;;;5.60;70.30;102332.41;5064803;28;20067;-92
2024/01/09 10:40:26;;;;;;;16.42;9.68;;;;;;;5.56;70.53;102338.03;5067388;28;20566;-88
2024/01/09 10:42:55;;;;;;;16.60;9.57;;;;;;;5.38;70.42;102299.19;5077613;28;20437;-89
2024/01/09 10:45:26;;;;;;;16.17;9.60;;;;;;;5.60;70.60;102364.41;5070931;28;20043;-89
2024/01/09 10:47:53;;;;;;;17.70;10.20;;;;;;;5.16;70.39;102277.09;5070975;28;20046;-90
2024/01/09 10:50:26;;;;;;;17.73;10.45;;;;;;;5.45;70.33;102304.22;5044644;28;20062;-91
2024/01/09 10:52:53;;;;;;;16.65;10.23;;;;;;;5.47;70.03;102297.50;5042578;28;20454;-90
2024/01/09 10:55:23;;;;;;;15.80;9.43;;;;;;;5.72;69.97;102351.78;5034387;28;20119;-89
2024/01/09 10:57:50;;;;;;;15.82;9.80;;;;;;;5.23;70.52;102276.94;5038293;28;20115;-89
2024/01/09 11:00:18;;;;;;;16.45;9.80;;;;;;;5.65;70.33;102323.38;5035038;28;20036;-89
2024/01/09 11:02:49;;;;;;;16.52;9.93;;;;;;;5.68;69.94;102336.69;5041632;28;20063;-90
2024/01/09 11:05:15;;;;;;;16.27;9.80;;;;;;;5.48;70.62;102326.91;5053425;28;20028;-89
2024/01/09 11:07:43;;;;;;;18.02;10.35;;;;;;;5.48;70.61;102327.84;5039494;28;20915;-90
2024/01/09 11:10:19;;;;;;;14.70;9.40;;;;;;;5.38;70.17;102288.84;5038916;28;20036;-91
2024/01/09 11:12:50;;;;;;;16.48;9.35;;;;;;;5.15;70.63;102258.06;5038779;28;20563;-89
2024/01/09 11:15:16;;;;;;;14.90;9.68;;;;;;;5.55;70.74;102339.72;5029886;28;20405;-90
2024/01/09 11:17:44;;;;;;;18.90;10.27;;;;;;;5.38;70.70;102306.06;5050015;28;20111;-90
2024/01/09 11:20:20;;;;;;;15.40;9.20;;;;;;;5.56;70.53;102335.44;5053089;28;20079;-91
2024/01/09 11:22:46;;;;;;;14.40;9.05;;;;;;;5.44;70.47;102323.13;5037093;28;20032;-90
2024/01/09 11:25:32;;;;;;;15.15;9.90;;;;;;;5.57;70.38;102337.31;5039208;28;20395;-91
2024/01/09 11:28:04;;;;;;;15.95;8.90;;;;;;;5.48;70.39;102324.31;5024031;28;20040;-90
2024/01/09 11:30:33;;;;;;;16.45;9.73;;;;;;;5.50;69.97;102335.75;5029480;28;20016;-92
2024/01/09 11:33:30;;;;;;;15.90;9.02;;;;;;;5.68;70.26;102347.03;5056943;28;20493;-91
2024/01/09 11:36:04;;;;;;;14.60;8.50;;;;;;;5.51;70.13;102322.94;5043414;28;20028;-90
2024/01/09 11:38:30;;;;;;;16.52;9.18;;;;;;;5.21;69.57;102294.91;5027844;28;20150;-91
2024/01/09 11:41:09;;;;;;;13.70;8.90;;;;;;;5.55;69.49;102337.13;5049992;28;20028;-89
2024/01/09 11:43:57;;;;;;;15.77;8.82;;;;;;;5.61;69.82;102358.47;5032997;28;20028;-91
2024/01/09 11:46:36;;;;;;;14.45;8.48;;;;;;;5.07;69.77;102297.78;5052536;28;20067;-91
2024/01/09 11:49:02;;;;;;;13.95;8.95;;;;;;;5.50;70.04;102360.00;5032545;28;20077;-90
2024/01/09 11:51:36;;;;;;;15.57;9.52;;;;;;;5.42;70.33;102368.69;5040181;28;20044;-92
2024/01/09 11:54:08;;;;;;;14.70;8.82;;;;;;;5.21;70.08;102340.63;5058413;28;20119;-93
2024/01/09 11:56:51;;;;;;;14.55;8.68;;;;;;;5.27;70.16;102344.75;5038515;28;20032;-93
2024/01/09 12:03:04;;;;;;;14.30;8.52;;;;;;;5.49;69.83;102381.47;5053051;28;20083;-93